createdAt,value
2023-03-10T00:04:55.096Z,58.94
2023-03-10T00:09:57.877Z,59.08
2023-03-10T00:15:02.128Z,59.27
2023-03-10T00:20:10.548Z,59.55
2023-03-10T00:25:13.391Z,59.79
2023-03-10T00:30:18.014Z,59.72
2023-03-10T00:35:20.778Z,59.76
2023-03-10T00:40:24.016Z,59.98
2023-03-10T00:45:28.414Z,60.10
2023-03-10T00:50:31.096Z,60.13
2023-03-10T00:55:33.808Z,60.34
2023-03-10T01:00:37.925Z,60.51
2023-03-10T01:05:40.638Z,60.49
2023-03-10T01:10:45.115Z,60.80
2023-03-10T01:15:50.501Z,60.70
2023-03-10T01:20:53.296Z,60.74
2023-03-10T01:25:56.518Z,60.75
2023-03-10T01:31:00.977Z,60.72
2023-03-10T01:36:07.922Z,60.81
2023-03-10T01:41:11.570Z,60.86
2023-03-10T01:46:38.427Z,60.83
2023-03-10T01:51:57.739Z,60.91
2023-03-10T01:57:00.965Z,61.12
2023-03-10T02:02:05.902Z,61.01
2023-03-10T02:07:09.620Z,61.25
2023-03-10T02:12:15.085Z,61.10
2023-03-10T02:17:24.079Z,61.45
2023-03-10T02:22:27.633Z,61.39
2023-03-10T02:27:36.422Z,61.66
2023-03-10T02:32:43.076Z,61.79
2023-03-10T02:37:46.208Z,61.83
2023-03-10T02:42:51.402Z,62.01
2023-03-10T02:47:54.252Z,61.81
2023-03-10T02:53:04.449Z,61.99
2023-03-10T02:58:09.103Z,62.11
2023-03-10T03:03:12.697Z,62.07
2023-03-10T03:08:15.996Z,62.31
2023-03-10T03:13:20.355Z,62.55
2023-03-10T03:18:23.517Z,62.50
2023-03-10T03:23:27.052Z,62.36
2023-03-10T03:28:31.801Z,62.49
2023-03-10T03:33:34.799Z,62.63
2023-03-10T03:38:38.025Z,62.79
2023-03-10T03:43:42.293Z,62.76
2023-03-10T03:48:45.060Z,62.67
2023-03-10T03:53:48.711Z,62.61
2023-03-10T03:58:53.034Z,62.85
2023-03-10T04:03:56.341Z,62.75
2023-03-10T04:08:59.450Z,62.67
2023-03-10T04:14:05.921Z,62.82
2023-03-10T04:19:09.497Z,62.98
2023-03-10T04:24:16.604Z,63.22
2023-03-10T04:29:24.285Z,62.89
2023-03-10T04:34:28.716Z,63.02
2023-03-10T04:39:31.796Z,63.13
2023-03-10T04:44:36.455Z,62.81
2023-03-10T04:49:41.453Z,63.00
2023-03-10T04:54:47.518Z,62.83
2023-03-10T04:59:52.580Z,62.73
2023-03-10T05:04:55.374Z,62.64
2023-03-10T05:09:59.015Z,62.51
2023-03-10T05:15:05.995Z,62.51
2023-03-10T05:20:10.913Z,62.42
2023-03-10T05:25:14.029Z,62.17
2023-03-10T05:30:19.639Z,62.13
2023-03-10T05:35:25.663Z,62.21
2023-03-10T05:40:28.650Z,62.16
2023-03-10T05:45:33.225Z,62.16
2023-03-10T05:50:35.988Z,62.18
2023-03-10T05:55:38.738Z,61.98
2023-03-10T06:00:42.880Z,62.18
2023-03-10T06:05:45.969Z,62.10
2023-03-10T06:10:48.764Z,62.05
2023-03-10T06:15:54.500Z,61.76
2023-03-10T06:20:57.595Z,62.03
2023-03-10T06:26:02.331Z,62.29
2023-03-10T06:31:09.011Z,61.95
2023-03-10T06:36:13.223Z,61.82
2023-03-10T06:41:22.297Z,61.82
2023-03-10T06:46:26.591Z,61.88
2023-03-10T06:51:29.406Z,61.92
2023-03-10T06:56:32.492Z,61.83
2023-03-10T07:01:36.554Z,61.71
2023-03-10T07:06:39.949Z,61.69
2023-03-10T07:11:42.710Z,61.53
2023-03-10T07:16:47.223Z,61.63
2023-03-10T07:21:50.245Z,61.54
2023-03-10T07:26:52.969Z,61.55
2023-03-10T07:31:57.138Z,61.64
2023-03-10T07:37:00.217Z,61.74
2023-03-10T07:42:02.982Z,61.60
2023-03-10T07:47:09.564Z,61.45
2023-03-10T07:52:12.265Z,61.58
2023-03-10T07:57:16.340Z,61.38
2023-03-10T08:02:20.434Z,61.38
2023-03-10T08:07:23.259Z,60.88
2023-03-10T08:12:26.045Z,60.67
2023-03-10T08:17:31.193Z,58.96
2023-03-10T08:22:33.948Z,57.64
2023-03-10T08:27:36.677Z,57.94
2023-03-10T08:32:41.362Z,57.78
2023-03-10T08:37:44.231Z,57.49
2023-03-10T08:42:48.379Z,58.33
2023-03-10T08:47:52.690Z,57.87
2023-03-10T08:52:55.413Z,58.22
2023-03-10T08:57:58.397Z,57.87
2023-03-10T09:03:02.501Z,57.92
2023-03-10T09:08:07.998Z,57.53
2023-03-10T09:13:14.315Z,57.39
2023-03-10T09:18:18.595Z,57.33
2023-03-10T09:23:21.374Z,57.58
2023-03-10T09:28:24.109Z,57.62
2023-03-10T09:33:28.361Z,57.53
2023-03-10T09:38:31.092Z,57.52
2023-03-10T09:43:39.219Z,57.55
2023-03-10T09:48:51.345Z,57.62
2023-03-10T09:54:06.521Z,57.58
2023-03-10T09:59:16.757Z,57.73
2023-03-10T10:04:26.056Z,57.87
2023-03-10T10:09:42.095Z,57.79
2023-03-10T10:14:55.257Z,57.93
2023-03-10T10:20:01.131Z,58.01
2023-03-10T10:25:19.424Z,57.99
2023-03-10T10:30:34.813Z,58.33
2023-03-10T10:35:41.256Z,58.32
2023-03-10T10:40:49.965Z,58.37
2023-03-10T10:45:55.352Z,58.30
2023-03-10T10:50:59.580Z,58.48
2023-03-10T10:56:05.786Z,58.80
2023-03-10T11:01:12.363Z,58.66
2023-03-10T11:06:27.007Z,58.69
2023-03-10T11:11:39.651Z,54.71
2023-03-10T11:16:51.081Z,54.19
2023-03-10T11:22:02.106Z,52.51
2023-03-10T11:27:13.879Z,55.92
2023-03-10T11:32:23.695Z,56.81
2023-03-10T11:37:34.500Z,57.13
2023-03-10T11:42:44.755Z,57.70
2023-03-10T11:47:57.702Z,58.57
2023-03-10T11:53:06.520Z,54.79
2023-03-10T11:58:24.343Z,53.80
2023-03-10T12:03:41.390Z,56.77
2023-03-10T12:08:47.604Z,57.64
2023-03-10T12:13:53.422Z,57.91
2023-03-10T12:18:56.510Z,58.28
2023-03-10T12:24:02.725Z,58.30
2023-03-10T12:29:32.068Z,58.76
2023-03-10T12:34:34.953Z,58.75
2023-03-10T12:39:43.548Z,58.87
2023-03-10T12:44:52.071Z,59.01
2023-03-10T12:49:59.132Z,59.02
2023-03-10T12:55:17.793Z,58.78
2023-03-10T13:00:30.810Z,58.86
2023-03-10T13:05:35.720Z,58.50
2023-03-10T13:10:43.680Z,55.07
2023-03-10T13:15:58.625Z,53.40
2023-03-10T13:21:02.191Z,55.61
2023-03-10T13:26:07.892Z,55.66
2023-03-10T13:31:20.165Z,55.06
2023-03-10T13:36:41.015Z,56.40
2023-03-10T13:41:48.115Z,57.05
2023-03-10T13:46:52.760Z,57.45
2023-03-10T13:51:57.624Z,58.04
2023-03-10T13:57:08.582Z,58.53
2023-03-10T14:02:18.732Z,58.89
2023-03-10T14:07:23.392Z,57.86
2023-03-10T14:12:38.056Z,58.45
2023-03-10T14:17:41.786Z,58.67
2023-03-10T14:22:44.655Z,58.88
2023-03-10T14:27:57.492Z,59.58
2023-03-10T14:33:02.141Z,59.57
2023-03-10T14:38:04.937Z,59.71
2023-03-10T14:43:16.693Z,60.00
2023-03-10T14:48:22.275Z,59.78
2023-03-10T14:53:28.035Z,60.14
2023-03-10T14:58:35.688Z,60.02
2023-03-10T15:03:38.485Z,60.05
2023-03-10T15:08:41.628Z,60.30
2023-03-10T15:13:45.816Z,60.37
2023-03-10T15:18:49.167Z,59.32
2023-03-10T15:23:51.856Z,59.36
2023-03-10T15:28:55.962Z,59.66
2023-03-10T15:33:58.722Z,59.56
2023-03-10T15:39:01.668Z,58.15
2023-03-10T15:44:06.404Z,57.98
2023-03-10T15:49:09.302Z,58.07
2023-03-10T15:54:12.754Z,58.58
2023-03-10T15:59:17.455Z,58.24
2023-03-10T16:04:20.472Z,56.44
2023-03-10T16:09:23.433Z,52.37
2023-03-10T16:14:28.353Z,53.13
2023-03-10T16:19:31.344Z,52.72
2023-03-10T16:24:34.242Z,54.97
2023-03-10T16:29:40.144Z,56.40
2023-03-10T16:34:42.859Z,57.20
2023-03-10T16:39:45.667Z,57.95
2023-03-10T16:44:50.068Z,59.00
2023-03-10T16:49:54.343Z,59.03
2023-03-10T16:54:58.396Z,59.12
2023-03-10T17:00:05.403Z,59.07
2023-03-10T17:05:09.982Z,58.79
2023-03-10T17:10:13.087Z,58.87
2023-03-10T17:15:17.294Z,59.15
2023-03-10T17:20:20.299Z,59.71
2023-03-10T17:25:23.341Z,60.02
2023-03-10T17:30:27.447Z,60.57
2023-03-10T17:35:30.351Z,60.29
2023-03-10T17:40:34.679Z,60.33
2023-03-10T17:45:38.729Z,60.25
2023-03-10T17:50:41.507Z,60.41
2023-03-10T17:55:44.340Z,60.52
2023-03-10T18:00:48.860Z,60.52
2023-03-10T18:05:51.651Z,60.46
2023-03-10T18:11:00.851Z,60.60
2023-03-10T18:16:05.466Z,60.65
2023-03-10T18:21:09.476Z,60.59
2023-03-10T18:26:14.260Z,60.65
2023-03-10T18:31:20.704Z,60.81
2023-03-10T18:36:24.830Z,60.98
2023-03-10T18:41:30.343Z,60.83
2023-03-10T18:46:34.674Z,60.51
2023-03-10T18:51:37.466Z,60.29
2023-03-10T18:56:40.214Z,60.05
2023-03-10T19:01:44.334Z,60.05
2023-03-10T19:06:47.320Z,59.72
2023-03-10T19:11:50.769Z,59.59
2023-03-10T19:16:54.856Z,59.39
2023-03-10T19:21:57.743Z,59.42
2023-03-10T19:27:03.969Z,59.16
2023-03-10T19:32:08.558Z,59.03
2023-03-10T19:37:11.314Z,58.95
2023-03-10T19:42:14.080Z,58.74
2023-03-10T19:47:19.238Z,58.63
2023-03-10T19:52:22.041Z,58.32
2023-03-10T19:57:24.896Z,58.38
2023-03-10T20:02:29.544Z,58.40
2023-03-10T20:07:32.314Z,58.26
2023-03-10T20:12:35.120Z,58.15
2023-03-10T20:17:39.478Z,58.10
2023-03-10T20:22:46.329Z,58.12
2023-03-10T20:27:51.005Z,57.77
2023-03-10T20:32:55.528Z,57.48
2023-03-10T20:37:59.006Z,57.25
2023-03-10T20:43:01.819Z,57.40
2023-03-10T20:48:06.463Z,57.28
2023-03-10T20:53:09.220Z,57.24
2023-03-10T20:58:11.996Z,57.27
2023-03-10T21:03:16.282Z,57.07
2023-03-10T21:13:22.974Z,57.30
2023-03-10T21:18:26.998Z,57.33
2023-03-10T21:23:29.777Z,57.26
2023-03-10T21:28:43.483Z,57.23
2023-03-10T21:33:47.814Z,57.24
2023-03-10T21:38:51.773Z,57.49
2023-03-10T21:43:55.356Z,57.71
2023-03-10T21:49:00.308Z,57.56
2023-03-10T21:54:04.058Z,57.68
2023-03-10T21:59:07.377Z,57.60
2023-03-10T22:04:12.947Z,57.45
2023-03-10T22:09:15.895Z,57.38
2023-03-10T22:14:18.780Z,57.23
2023-03-10T22:19:22.930Z,56.33
2023-03-10T22:24:26.110Z,55.95
2023-03-10T22:29:28.781Z,55.67
2023-03-10T22:34:32.996Z,55.68
2023-03-10T22:39:38.503Z,55.48
2023-03-10T22:44:41.398Z,55.11
2023-03-10T22:49:46.305Z,54.91
2023-03-10T22:54:49.076Z,54.45
2023-03-10T22:59:51.908Z,54.83
2023-03-10T23:04:56.192Z,54.80
2023-03-10T23:09:59.152Z,55.07
2023-03-10T23:15:05.137Z,54.97
2023-03-10T23:20:13.916Z,54.85
2023-03-10T23:25:18.860Z,54.77
2023-03-10T23:30:21.879Z,54.82
2023-03-10T23:35:29.272Z,54.82
2023-03-10T23:40:32.716Z,55.15
2023-03-10T23:45:37.843Z,55.26
2023-03-10T23:50:43.436Z,55.03
2023-03-10T23:55:47.875Z,55.05
